sensor_id;sensor_type;location;lat;lon;timestamp;temperature;humidity
60868;DHT22;46702;48.370;10.794;2022-12-10T00:01:16;1.00;99.90
60868;DHT22;46702;48.370;10.794;2022-12-10T00:03:43;1.10;99.90
60868;DHT22;46702;48.370;10.794;2022-12-10T00:06:12;1.00;99.90
60868;DHT22;46702;48.370;10.794;2022-12-10T00:08:38;1.10;99.90
60868;DHT22;46702;48.370;10.794;2022-12-10T00:11:05;1.20;99.90
60868;DHT22;46702;48.370;10.794;2022-12-10T00:13:33;1.20;99.90
60868;DHT22;46702;48.370;10.794;2022-12-10T00:16:00;1.10;99.90
60868;DHT22;46702;48.370;10.794;2022-12-10T00:18:25;1.20;99.90
60868;DHT22;46702;48.370;10.794;2022-12-10T00:20:51;1.20;99.90
60868;DHT22;46702;48.370;10.794;2022-12-10T00:23:17;1.20;99.90
60868;DHT22;46702;48.370;10.794;2022-12-10T00:25:42;1.10;99.90
60868;DHT22;46702;48.370;10.794;2022-12-10T00:28:08;1.10;99.90
60868;DHT22;46702;48.370;10.794;2022-12-10T00:30:33;1.10;99.90
60868;DHT22;46702;48.370;10.794;2022-12-10T00:32:59;1.10;99.90
60868;DHT22;46702;48.370;10.794;2022-12-10T00:35:25;1.10;99.90
60868;DHT22;46702;48.370;10.794;2022-12-10T00:37:50;1.10;99.90
60868;DHT22;46702;48.370;10.794;2022-12-10T00:40:16;1.20;99.90
60868;DHT22;46702;48.370;10.794;2022-12-10T00:42:42;1.20;99.90
60868;DHT22;46702;48.370;10.794;2022-12-10T00:45:07;1.20;99.90
60868;DHT22;46702;48.370;10.794;2022-12-10T00:47:33;1.20;99.90
60868;DHT22;46702;48.370;10.794;2022-12-10T00:49:59;1.10;99.90
60868;DHT22;46702;48.370;10.794;2022-12-10T00:52:24;1.20;99.90
60868;DHT22;46702;48.370;10.794;2022-12-10T00:54:50;1.10;99.90
60868;DHT22;46702;48.370;10.794;2022-12-10T00:57:16;1.10;99.90
60868;DHT22;46702;48.370;10.794;2022-12-10T00:59:41;1.10;99.90
60868;DHT22;46702;48.370;10.794;2022-12-10T01:02:07;1.10;99.90
60868;DHT22;46702;48.370;10.794;2022-12-10T01:04:32;1.00;99.90
60868;DHT22;46702;48.370;10.794;2022-12-10T01:06:58;1.00;99.90
60868;DHT22;46702;48.370;10.794;2022-12-10T01:09:29;1.10;99.90
60868;DHT22;46702;48.370;10.794;2022-12-10T01:11:57;1.00;99.90
60868;DHT22;46702;48.370;10.794;2022-12-10T01:14:29;1.00;99.90
60868;DHT22;46702;48.370;10.794;2022-12-10T01:17:00;1.00;99.90
60868;DHT22;46702;48.370;10.794;2022-12-10T01:19:28;1.00;99.90
60868;DHT22;46702;48.370;10.794;2022-12-10T01:21:55;1.00;99.90
60868;DHT22;46702;48.370;10.794;2022-12-10T01:24:22;0.90;99.90
60868;DHT22;46702;48.370;10.794;2022-12-10T01:26:48;0.90;99.90
60868;DHT22;46702;48.370;10.794;2022-12-10T01:29:14;0.80;99.90
60868;DHT22;46702;48.370;10.794;2022-12-10T01:31:40;0.80;99.90
60868;DHT22;46702;48.370;10.794;2022-12-10T01:34:09;0.80;99.90
60868;DHT22;46702;48.370;10.794;2022-12-10T01:36:36;0.90;99.90
60868;DHT22;46702;48.370;10.794;2022-12-10T01:39:05;0.80;99.90
60868;DHT22;46702;48.370;10.794;2022-12-10T01:41:36;0.80;99.90
60868;DHT22;46702;48.370;10.794;2022-12-10T01:46:57;0.70;99.90
60868;DHT22;46702;48.370;10.794;2022-12-10T01:49:45;0.70;99.90
60868;DHT22;46702;48.370;10.794;2022-12-10T01:52:11;0.70;99.90
60868;DHT22;46702;48.370;10.794;2022-12-10T01:54:41;0.80;99.90
60868;DHT22;46702;48.370;10.794;2022-12-10T01:57:11;0.80;99.90
60868;DHT22;46702;48.370;10.794;2022-12-10T01:59:38;0.80;99.90
60868;DHT22;46702;48.370;10.794;2022-12-10T02:07:26;0.80;99.90
60868;DHT22;46702;48.370;10.794;2022-12-10T02:18:10;0.80;99.90
60868;DHT22;46702;48.370;10.794;2022-12-10T02:20:45;0.90;99.90
60868;DHT22;46702;48.370;10.794;2022-12-10T02:23:16;0.80;99.90
60868;DHT22;46702;48.370;10.794;2022-12-10T02:31:05;0.80;99.90
60868;DHT22;46702;48.370;10.794;2022-12-10T02:33:35;0.80;99.90
60868;DHT22;46702;48.370;10.794;2022-12-10T02:36:03;0.80;99.90
60868;DHT22;46702;48.370;10.794;2022-12-10T02:38:32;0.80;99.90
60868;DHT22;46702;48.370;10.794;2022-12-10T02:41:07;0.80;99.90
60868;DHT22;46702;48.370;10.794;2022-12-10T02:43:34;0.70;99.90
60868;DHT22;46702;48.370;10.794;2022-12-10T02:46:02;0.70;99.90
60868;DHT22;46702;48.370;10.794;2022-12-10T02:48:28;0.70;99.90
60868;DHT22;46702;48.370;10.794;2022-12-10T02:50:55;0.70;99.90
60868;DHT22;46702;48.370;10.794;2022-12-10T02:53:20;0.70;99.90
60868;DHT22;46702;48.370;10.794;2022-12-10T02:56:35;0.60;99.90
60868;DHT22;46702;48.370;10.794;2022-12-10T02:59:09;0.70;99.90
60868;DHT22;46702;48.370;10.794;2022-12-10T03:04:33;0.60;99.90
60868;DHT22;46702;48.370;10.794;2022-12-10T03:07:09;0.70;99.90
60868;DHT22;46702;48.370;10.794;2022-12-10T03:09:46;0.60;99.90
60868;DHT22;46702;48.370;10.794;2022-12-10T03:12:35;0.60;99.90
60868;DHT22;46702;48.370;10.794;2022-12-10T03:15:06;0.60;99.90
60868;DHT22;46702;48.370;10.794;2022-12-10T03:17:34;0.60;99.90
60868;DHT22;46702;48.370;10.794;2022-12-10T03:20:02;0.60;99.90
60868;DHT22;46702;48.370;10.794;2022-12-10T03:22:29;0.60;99.90
60868;DHT22;46702;48.370;10.794;2022-12-10T03:24:58;0.60;99.90
60868;DHT22;46702;48.370;10.794;2022-12-10T03:27:24;0.60;99.90
60868;DHT22;46702;48.370;10.794;2022-12-10T03:29:53;0.60;99.90
60868;DHT22;46702;48.370;10.794;2022-12-10T03:32:21;0.60;99.90
60868;DHT22;46702;48.370;10.794;2022-12-10T03:34:50;0.60;99.90
60868;DHT22;46702;48.370;10.794;2022-12-10T03:37:16;0.60;99.90
60868;DHT22;46702;48.370;10.794;2022-12-10T03:39:42;0.60;99.90
60868;DHT22;46702;48.370;10.794;2022-12-10T03:42:08;0.60;99.90
60868;DHT22;46702;48.370;10.794;2022-12-10T03:44:36;0.60;99.90
60868;DHT22;46702;48.370;10.794;2022-12-10T03:47:03;0.60;99.90
60868;DHT22;46702;48.370;10.794;2022-12-10T03:49:30;0.60;99.90
60868;DHT22;46702;48.370;10.794;2022-12-10T03:51:56;0.60;99.90
60868;DHT22;46702;48.370;10.794;2022-12-10T03:54:21;0.60;99.90
60868;DHT22;46702;48.370;10.794;2022-12-10T03:56:48;0.70;99.90
60868;DHT22;46702;48.370;10.794;2022-12-10T03:59:13;0.70;99.90
60868;DHT22;46702;48.370;10.794;2022-12-10T04:01:39;0.60;99.90
60868;DHT22;46702;48.370;10.794;2022-12-10T04:04:05;0.60;99.90
60868;DHT22;46702;48.370;10.794;2022-12-10T04:06:31;0.60;99.90
60868;DHT22;46702;48.370;10.794;2022-12-10T04:08:57;0.60;99.90
60868;DHT22;46702;48.370;10.794;2022-12-10T04:11:23;0.60;99.90
60868;DHT22;46702;48.370;10.794;2022-12-10T04:13:49;0.50;99.90
60868;DHT22;46702;48.370;10.794;2022-12-10T04:16:34;0.60;99.90
60868;DHT22;46702;48.370;10.794;2022-12-10T04:19:04;0.50;99.90
60868;DHT22;46702;48.370;10.794;2022-12-10T04:21:32;0.50;99.90
60868;DHT22;46702;48.370;10.794;2022-12-10T04:24:18;0.50;99.90
60868;DHT22;46702;48.370;10.794;2022-12-10T04:27:06;0.50;99.90
60868;DHT22;46702;48.370;10.794;2022-12-10T04:29:33;0.60;99.90
60868;DHT22;46702;48.370;10.794;2022-12-10T04:31:59;0.60;99.90
60868;DHT22;46702;48.370;10.794;2022-12-10T04:34:25;0.60;99.90
60868;DHT22;46702;48.370;10.794;2022-12-10T04:36:51;0.60;99.90
60868;DHT22;46702;48.370;10.794;2022-12-10T04:39:17;0.60;99.90
60868;DHT22;46702;48.370;10.794;2022-12-10T04:41:44;0.60;99.90
60868;DHT22;46702;48.370;10.794;2022-12-10T04:44:10;0.60;99.90
60868;DHT22;46702;48.370;10.794;2022-12-10T04:46:36;0.60;99.90
60868;DHT22;46702;48.370;10.794;2022-12-10T04:49:03;0.60;99.90
60868;DHT22;46702;48.370;10.794;2022-12-10T04:51:29;0.60;99.90
60868;DHT22;46702;48.370;10.794;2022-12-10T04:53:55;0.60;99.90
60868;DHT22;46702;48.370;10.794;2022-12-10T04:56:21;0.60;99.90
60868;DHT22;46702;48.370;10.794;2022-12-10T04:58:46;0.60;99.90
60868;DHT22;46702;48.370;10.794;2022-12-10T05:01:12;0.60;99.90
60868;DHT22;46702;48.370;10.794;2022-12-10T05:03:38;0.60;99.90
60868;DHT22;46702;48.370;10.794;2022-12-10T05:06:10;0.60;99.90
60868;DHT22;46702;48.370;10.794;2022-12-10T05:08:37;0.60;99.90
60868;DHT22;46702;48.370;10.794;2022-12-10T05:11:09;0.60;99.90
60868;DHT22;46702;48.370;10.794;2022-12-10T05:13:36;0.60;99.90
60868;DHT22;46702;48.370;10.794;2022-12-10T05:16:03;0.60;99.90
60868;DHT22;46702;48.370;10.794;2022-12-10T05:18:29;0.60;99.90
60868;DHT22;46702;48.370;10.794;2022-12-10T05:20:58;0.60;99.90
60868;DHT22;46702;48.370;10.794;2022-12-10T05:23:24;0.60;99.90
60868;DHT22;46702;48.370;10.794;2022-12-10T05:26:24;0.50;99.90
60868;DHT22;46702;48.370;10.794;2022-12-10T05:28:55;0.50;99.90
60868;DHT22;46702;48.370;10.794;2022-12-10T05:31:23;0.50;99.90
60868;DHT22;46702;48.370;10.794;2022-12-10T05:33:49;0.50;99.90
60868;DHT22;46702;48.370;10.794;2022-12-10T05:36:17;0.50;99.90
60868;DHT22;46702;48.370;10.794;2022-12-10T05:38:43;0.50;99.90
60868;DHT22;46702;48.370;10.794;2022-12-10T05:41:15;0.50;99.90
60868;DHT22;46702;48.370;10.794;2022-12-10T05:43:42;0.50;99.90
60868;DHT22;46702;48.370;10.794;2022-12-10T05:46:12;0.50;99.90
60868;DHT22;46702;48.370;10.794;2022-12-10T05:48:38;0.60;99.90
60868;DHT22;46702;48.370;10.794;2022-12-10T05:51:08;0.60;99.90
60868;DHT22;46702;48.370;10.794;2022-12-10T05:53:34;0.50;99.90
60868;DHT22;46702;48.370;10.794;2022-12-10T05:56:02;0.60;99.90
60868;DHT22;46702;48.370;10.794;2022-12-10T05:58:28;0.60;99.90
60868;DHT22;46702;48.370;10.794;2022-12-10T06:00:55;0.60;99.90
60868;DHT22;46702;48.370;10.794;2022-12-10T06:03:21;0.60;99.90
60868;DHT22;46702;48.370;10.794;2022-12-10T06:05:47;0.60;99.90
60868;DHT22;46702;48.370;10.794;2022-12-10T06:08:12;0.60;99.90
60868;DHT22;46702;48.370;10.794;2022-12-10T06:10:38;0.60;99.90
60868;DHT22;46702;48.370;10.794;2022-12-10T06:13:04;0.60;99.90
60868;DHT22;46702;48.370;10.794;2022-12-10T06:15:31;0.60;99.90
60868;DHT22;46702;48.370;10.794;2022-12-10T06:17:57;0.60;99.90
60868;DHT22;46702;48.370;10.794;2022-12-10T06:20:23;0.60;99.90
60868;DHT22;46702;48.370;10.794;2022-12-10T06:22:49;0.60;99.90
60868;DHT22;46702;48.370;10.794;2022-12-10T06:25:15;0.60;99.90
60868;DHT22;46702;48.370;10.794;2022-12-10T06:27:40;0.60;99.90
60868;DHT22;46702;48.370;10.794;2022-12-10T06:30:07;0.60;99.90
60868;DHT22;46702;48.370;10.794;2022-12-10T06:32:32;0.60;99.90
60868;DHT22;46702;48.370;10.794;2022-12-10T06:34:58;0.60;99.90
60868;DHT22;46702;48.370;10.794;2022-12-10T06:37:23;0.60;99.90
60868;DHT22;46702;48.370;10.794;2022-12-10T06:39:52;0.60;99.90
60868;DHT22;46702;48.370;10.794;2022-12-10T06:42:21;0.60;99.90
60868;DHT22;46702;48.370;10.794;2022-12-10T06:44:47;0.60;99.90
60868;DHT22;46702;48.370;10.794;2022-12-10T06:47:13;0.60;99.90
60868;DHT22;46702;48.370;10.794;2022-12-10T06:49:39;0.60;99.90
60868;DHT22;46702;48.370;10.794;2022-12-10T06:52:05;0.60;99.90
60868;DHT22;46702;48.370;10.794;2022-12-10T06:54:31;0.60;99.90
60868;DHT22;46702;48.370;10.794;2022-12-10T06:56:57;0.60;99.90
60868;DHT22;46702;48.370;10.794;2022-12-10T06:59:22;0.60;99.90
60868;DHT22;46702;48.370;10.794;2022-12-10T07:01:48;0.60;99.90
60868;DHT22;46702;48.370;10.794;2022-12-10T07:04:14;0.60;99.90
60868;DHT22;46702;48.370;10.794;2022-12-10T07:06:39;0.60;99.90
60868;DHT22;46702;48.370;10.794;2022-12-10T07:09:05;0.50;99.90
60868;DHT22;46702;48.370;10.794;2022-12-10T07:11:31;0.50;99.90
60868;DHT22;46702;48.370;10.794;2022-12-10T07:13:58;0.50;99.90
60868;DHT22;46702;48.370;10.794;2022-12-10T07:16:26;0.60;99.90
60868;DHT22;46702;48.370;10.794;2022-12-10T07:18:54;0.50;99.90
60868;DHT22;46702;48.370;10.794;2022-12-10T07:21:40;0.50;99.90
60868;DHT22;46702;48.370;10.794;2022-12-10T07:24:13;0.50;99.90
60868;DHT22;46702;48.370;10.794;2022-12-10T07:26:41;0.50;99.90
60868;DHT22;46702;48.370;10.794;2022-12-10T07:29:16;0.50;99.90
60868;DHT22;46702;48.370;10.794;2022-12-10T07:31:42;0.60;99.90
60868;DHT22;46702;48.370;10.794;2022-12-10T07:34:09;0.50;99.90
60868;DHT22;46702;48.370;10.794;2022-12-10T07:36:35;0.60;99.90
60868;DHT22;46702;48.370;10.794;2022-12-10T07:39:00;0.50;99.90
60868;DHT22;46702;48.370;10.794;2022-12-10T07:41:27;0.60;99.90
60868;DHT22;46702;48.370;10.794;2022-12-10T07:43:52;0.50;99.90
60868;DHT22;46702;48.370;10.794;2022-12-10T07:46:26;0.50;99.90
60868;DHT22;46702;48.370;10.794;2022-12-10T07:48:53;0.50;99.90
60868;DHT22;46702;48.370;10.794;2022-12-10T07:51:20;0.60;99.90
60868;DHT22;46702;48.370;10.794;2022-12-10T07:53:47;0.60;99.90
60868;DHT22;46702;48.370;10.794;2022-12-10T07:56:13;0.60;99.90
60868;DHT22;46702;48.370;10.794;2022-12-10T07:58:43;0.50;99.90
60868;DHT22;46702;48.370;10.794;2022-12-10T08:01:12;0.60;99.90
60868;DHT22;46702;48.370;10.794;2022-12-10T08:03:39;0.50;99.90
60868;DHT22;46702;48.370;10.794;2022-12-10T08:06:08;0.50;99.90
60868;DHT22;46702;48.370;10.794;2022-12-10T08:08:35;0.50;99.90
60868;DHT22;46702;48.370;10.794;2022-12-10T08:11:01;0.50;99.90
60868;DHT22;46702;48.370;10.794;2022-12-10T08:13:28;0.50;99.90
60868;DHT22;46702;48.370;10.794;2022-12-10T08:15:54;0.50;99.90
60868;DHT22;46702;48.370;10.794;2022-12-10T08:18:20;0.60;99.90
60868;DHT22;46702;48.370;10.794;2022-12-10T08:20:46;0.50;99.90
60868;DHT22;46702;48.370;10.794;2022-12-10T08:23:11;0.50;99.90
60868;DHT22;46702;48.370;10.794;2022-12-10T08:25:37;0.60;99.90
60868;DHT22;46702;48.370;10.794;2022-12-10T08:28:03;0.60;99.90
60868;DHT22;46702;48.370;10.794;2022-12-10T08:30:29;0.60;99.90
60868;DHT22;46702;48.370;10.794;2022-12-10T08:32:55;0.60;99.90
60868;DHT22;46702;48.370;10.794;2022-12-10T08:35:21;0.60;99.90
60868;DHT22;46702;48.370;10.794;2022-12-10T08:37:46;0.60;99.90
60868;DHT22;46702;48.370;10.794;2022-12-10T08:40:12;0.60;99.90
60868;DHT22;46702;48.370;10.794;2022-12-10T08:42:38;0.60;99.90
60868;DHT22;46702;48.370;10.794;2022-12-10T08:45:05;0.60;99.90
60868;DHT22;46702;48.370;10.794;2022-12-10T08:47:30;0.60;99.90
60868;DHT22;46702;48.370;10.794;2022-12-10T08:49:56;0.60;99.90
60868;DHT22;46702;48.370;10.794;2022-12-10T08:52:22;0.60;99.90
60868;DHT22;46702;48.370;10.794;2022-12-10T08:54:47;0.60;99.90
60868;DHT22;46702;48.370;10.794;2022-12-10T08:57:13;0.60;99.90
60868;DHT22;46702;48.370;10.794;2022-12-10T08:59:39;0.70;99.90
60868;DHT22;46702;48.370;10.794;2022-12-10T09:02:04;0.70;99.90
60868;DHT22;46702;48.370;10.794;2022-12-10T09:04:30;0.70;99.90
60868;DHT22;46702;48.370;10.794;2022-12-10T09:06:55;0.70;99.90
60868;DHT22;46702;48.370;10.794;2022-12-10T09:09:21;0.70;99.90
60868;DHT22;46702;48.370;10.794;2022-12-10T09:11:46;0.70;99.90
60868;DHT22;46702;48.370;10.794;2022-12-10T09:14:12;0.70;99.90
60868;DHT22;46702;48.370;10.794;2022-12-10T09:16:38;0.70;99.90
60868;DHT22;46702;48.370;10.794;2022-12-10T09:19:07;0.70;99.90
60868;DHT22;46702;48.370;10.794;2022-12-10T09:21:33;0.70;99.90
60868;DHT22;46702;48.370;10.794;2022-12-10T09:23:59;0.70;99.90
60868;DHT22;46702;48.370;10.794;2022-12-10T09:26:25;0.80;99.90
60868;DHT22;46702;48.370;10.794;2022-12-10T09:28:51;0.80;99.90
60868;DHT22;46702;48.370;10.794;2022-12-10T09:31:18;0.80;99.90
60868;DHT22;46702;48.370;10.794;2022-12-10T09:33:45;0.80;99.90
60868;DHT22;46702;48.370;10.794;2022-12-10T09:36:12;0.70;99.90
60868;DHT22;46702;48.370;10.794;2022-12-10T09:38:40;0.70;99.90
60868;DHT22;46702;48.370;10.794;2022-12-10T09:41:30;0.80;99.90
60868;DHT22;46702;48.370;10.794;2022-12-10T09:44:08;0.80;99.90
60868;DHT22;46702;48.370;10.794;2022-12-10T09:46:54;0.80;99.90
60868;DHT22;46702;48.370;10.794;2022-12-10T09:52:17;0.80;99.90
60868;DHT22;46702;48.370;10.794;2022-12-10T09:54:47;0.70;99.90
60868;DHT22;46702;48.370;10.794;2022-12-10T09:57:27;0.80;99.90
60868;DHT22;46702;48.370;10.794;2022-12-10T09:59:55;0.80;99.90
60868;DHT22;46702;48.370;10.794;2022-12-10T10:02:28;0.80;99.90
60868;DHT22;46702;48.370;10.794;2022-12-10T10:05:14;0.80;99.90
60868;DHT22;46702;48.370;10.794;2022-12-10T10:07:43;0.80;99.90
60868;DHT22;46702;48.370;10.794;2022-12-10T10:10:21;0.80;99.90
60868;DHT22;46702;48.370;10.794;2022-12-10T10:13:01;0.80;99.90
60868;DHT22;46702;48.370;10.794;2022-12-10T10:15:39;0.80;99.90
60868;DHT22;46702;48.370;10.794;2022-12-10T10:20:52;0.90;99.90
60868;DHT22;46702;48.370;10.794;2022-12-10T10:23:18;0.90;99.90
60868;DHT22;46702;48.370;10.794;2022-12-10T10:25:44;0.80;99.90
60868;DHT22;46702;48.370;10.794;2022-12-10T10:28:21;0.90;99.90
60868;DHT22;46702;48.370;10.794;2022-12-10T10:30:48;0.90;99.90
60868;DHT22;46702;48.370;10.794;2022-12-10T10:33:15;0.80;99.90
60868;DHT22;46702;48.370;10.794;2022-12-10T10:36:16;0.80;99.90
60868;DHT22;46702;48.370;10.794;2022-12-10T10:38:34;0.80;99.90
60868;DHT22;46702;48.370;10.794;2022-12-10T10:41:02;0.80;99.90
60868;DHT22;46702;48.370;10.794;2022-12-10T10:43:39;0.80;99.90
60868;DHT22;46702;48.370;10.794;2022-12-10T10:46:15;0.80;99.90
60868;DHT22;46702;48.370;10.794;2022-12-10T10:48:42;0.80;99.90
60868;DHT22;46702;48.370;10.794;2022-12-10T10:53:53;0.90;99.90
60868;DHT22;46702;48.370;10.794;2022-12-10T10:56:22;0.90;99.90
60868;DHT22;46702;48.370;10.794;2022-12-10T10:59:05;0.80;99.90
60868;DHT22;46702;48.370;10.794;2022-12-10T11:01:55;0.80;99.90
60868;DHT22;46702;48.370;10.794;2022-12-10T11:07:02;0.80;99.90
60868;DHT22;46702;48.370;10.794;2022-12-10T11:09:31;0.80;99.90
60868;DHT22;46702;48.370;10.794;2022-12-10T11:12:20;0.80;99.90
60868;DHT22;46702;48.370;10.794;2022-12-10T11:14:45;0.80;99.90
60868;DHT22;46702;48.370;10.794;2022-12-10T11:17:17;0.90;99.90
60868;DHT22;46702;48.370;10.794;2022-12-10T11:19:53;0.80;99.90
60868;DHT22;46702;48.370;10.794;2022-12-10T11:22:24;0.80;99.90
60868;DHT22;46702;48.370;10.794;2022-12-10T11:24:50;0.80;99.90
60868;DHT22;46702;48.370;10.794;2022-12-10T11:27:53;0.80;99.90
60868;DHT22;46702;48.370;10.794;2022-12-10T11:30:22;0.80;99.90
60868;DHT22;46702;48.370;10.794;2022-12-10T11:41:36;0.70;99.90
60868;DHT22;46702;48.370;10.794;2022-12-10T11:44:20;0.70;99.90
60868;DHT22;46702;48.370;10.794;2022-12-10T11:47:08;0.80;99.90
60868;DHT22;46702;48.370;10.794;2022-12-10T11:49:39;0.80;99.90
60868;DHT22;46702;48.370;10.794;2022-12-10T11:58:11;0.80;99.90
60868;DHT22;46702;48.370;10.794;2022-12-10T12:03:55;0.90;99.90
60868;DHT22;46702;48.370;10.794;2022-12-10T12:14:22;0.90;99.90
60868;DHT22;46702;48.370;10.794;2022-12-10T12:17:10;1.00;99.90
60868;DHT22;46702;48.370;10.794;2022-12-10T12:22:38;1.00;99.90
60868;DHT22;46702;48.370;10.794;2022-12-10T12:27:55;1.00;99.90
60868;DHT22;46702;48.370;10.794;2022-12-10T12:30:23;1.00;99.90
60868;DHT22;46702;48.370;10.794;2022-12-10T12:38:30;1.20;99.90
60868;DHT22;46702;48.370;10.794;2022-12-10T12:41:05;1.20;99.90
60868;DHT22;46702;48.370;10.794;2022-12-10T12:46:09;1.20;99.90
60868;DHT22;46702;48.370;10.794;2022-12-10T12:48:45;1.10;99.90
60868;DHT22;46702;48.370;10.794;2022-12-10T12:51:36;1.10;99.90
60868;DHT22;46702;48.370;10.794;2022-12-10T12:54:04;1.10;99.90
60868;DHT22;46702;48.370;10.794;2022-12-10T12:59:35;1.10;99.90
60868;DHT22;46702;48.370;10.794;2022-12-10T13:04:48;1.10;99.90
60868;DHT22;46702;48.370;10.794;2022-12-10T13:15:37;1.10;99.90
60868;DHT22;46702;48.370;10.794;2022-12-10T13:20:44;1.10;99.90
60868;DHT22;46702;48.370;10.794;2022-12-10T13:41:34;0.80;99.90
60868;DHT22;46702;48.370;10.794;2022-12-10T13:44:37;0.80;99.90
60868;DHT22;46702;48.370;10.794;2022-12-10T13:49:58;0.90;99.90
60868;DHT22;46702;48.370;10.794;2022-12-10T13:52:36;0.90;99.90
60868;DHT22;46702;48.370;10.794;2022-12-10T13:55:25;0.90;99.90
60868;DHT22;46702;48.370;10.794;2022-12-10T13:58:08;0.90;99.90
60868;DHT22;46702;48.370;10.794;2022-12-10T14:00:49;0.90;99.90
60868;DHT22;46702;48.370;10.794;2022-12-10T14:06:18;0.80;99.90
60868;DHT22;46702;48.370;10.794;2022-12-10T14:11:32;0.90;99.90
60868;DHT22;46702;48.370;10.794;2022-12-10T14:14:00;0.80;99.90
60868;DHT22;46702;48.370;10.794;2022-12-10T14:16:29;0.80;99.90
60868;DHT22;46702;48.370;10.794;2022-12-10T14:19:07;0.90;99.90
60868;DHT22;46702;48.370;10.794;2022-12-10T14:21:35;0.90;99.90
60868;DHT22;46702;48.370;10.794;2022-12-10T14:24:02;0.90;99.90
60868;DHT22;46702;48.370;10.794;2022-12-10T14:26:30;0.90;99.90
60868;DHT22;46702;48.370;10.794;2022-12-10T14:28:58;0.80;99.90
60868;DHT22;46702;48.370;10.794;2022-12-10T14:31:32;0.80;99.90
60868;DHT22;46702;48.370;10.794;2022-12-10T14:34:11;0.90;99.90
60868;DHT22;46702;48.370;10.794;2022-12-10T14:36:39;0.80;99.90
60868;DHT22;46702;48.370;10.794;2022-12-10T14:39:21;0.80;99.90
60868;DHT22;46702;48.370;10.794;2022-12-10T14:41:50;0.90;99.90
60868;DHT22;46702;48.370;10.794;2022-12-10T14:44:16;0.90;99.90
60868;DHT22;46702;48.370;10.794;2022-12-10T14:46:43;0.80;99.90
60868;DHT22;46702;48.370;10.794;2022-12-10T14:49:25;0.90;99.90
60868;DHT22;46702;48.370;10.794;2022-12-10T14:51:50;0.80;99.90
60868;DHT22;46702;48.370;10.794;2022-12-10T14:54:32;0.80;99.90
60868;DHT22;46702;48.370;10.794;2022-12-10T14:57:04;0.70;99.90
60868;DHT22;46702;48.370;10.794;2022-12-10T14:59:35;0.70;99.90
60868;DHT22;46702;48.370;10.794;2022-12-10T15:02:17;0.70;99.90
60868;DHT22;46702;48.370;10.794;2022-12-10T15:04:46;0.70;99.90
60868;DHT22;46702;48.370;10.794;2022-12-10T15:07:15;0.70;99.90
60868;DHT22;46702;48.370;10.794;2022-12-10T15:09:43;0.70;99.90
60868;DHT22;46702;48.370;10.794;2022-12-10T15:12:24;0.80;99.90
60868;DHT22;46702;48.370;10.794;2022-12-10T15:14:54;0.70;99.90
60868;DHT22;46702;48.370;10.794;2022-12-10T15:20:32;0.70;99.90
60868;DHT22;46702;48.370;10.794;2022-12-10T15:23:52;0.70;99.90
60868;DHT22;46702;48.370;10.794;2022-12-10T15:28:32;0.60;99.90
60868;DHT22;46702;48.370;10.794;2022-12-10T15:33:56;0.60;99.90
60868;DHT22;46702;48.370;10.794;2022-12-10T15:36:41;0.60;99.90
60868;DHT22;46702;48.370;10.794;2022-12-10T15:39:25;0.70;99.90
60868;DHT22;46702;48.370;10.794;2022-12-10T15:41:55;0.70;99.90
60868;DHT22;46702;48.370;10.794;2022-12-10T15:49:40;0.70;99.90
60868;DHT22;46702;48.370;10.794;2022-12-10T15:52:06;0.70;99.90
60868;DHT22;46702;48.370;10.794;2022-12-10T15:54:35;0.70;99.90
60868;DHT22;46702;48.370;10.794;2022-12-10T15:59:41;0.70;99.90
60868;DHT22;46702;48.370;10.794;2022-12-10T16:05:20;0.70;99.90
60868;DHT22;46702;48.370;10.794;2022-12-10T16:07:48;0.70;99.90
60868;DHT22;46702;48.370;10.794;2022-12-10T16:10:16;0.80;99.90
60868;DHT22;46702;48.370;10.794;2022-12-10T16:12:43;0.70;99.90
60868;DHT22;46702;48.370;10.794;2022-12-10T16:15:19;0.80;99.90
60868;DHT22;46702;48.370;10.794;2022-12-10T16:17:46;0.70;99.90
60868;DHT22;46702;48.370;10.794;2022-12-10T16:22:37;0.70;99.90
60868;DHT22;46702;48.370;10.794;2022-12-10T16:25:03;0.60;99.90
60868;DHT22;46702;48.370;10.794;2022-12-10T16:27:29;0.60;99.90
60868;DHT22;46702;48.370;10.794;2022-12-10T16:29:58;0.60;99.90
60868;DHT22;46702;48.370;10.794;2022-12-10T16:32:24;0.60;99.90
60868;DHT22;46702;48.370;10.794;2022-12-10T16:34:49;0.60;99.90
60868;DHT22;46702;48.370;10.794;2022-12-10T16:37:15;0.60;99.90
60868;DHT22;46702;48.370;10.794;2022-12-10T16:39:41;0.60;99.90
60868;DHT22;46702;48.370;10.794;2022-12-10T16:42:10;0.60;99.90
60868;DHT22;46702;48.370;10.794;2022-12-10T16:44:35;0.60;99.90
60868;DHT22;46702;48.370;10.794;2022-12-10T16:47:01;0.60;99.90
60868;DHT22;46702;48.370;10.794;2022-12-10T16:49:26;0.60;99.90
60868;DHT22;46702;48.370;10.794;2022-12-10T16:51:52;0.60;99.90
60868;DHT22;46702;48.370;10.794;2022-12-10T16:54:18;0.60;99.90
60868;DHT22;46702;48.370;10.794;2022-12-10T16:56:43;0.60;99.90
60868;DHT22;46702;48.370;10.794;2022-12-10T16:59:09;0.60;99.90
60868;DHT22;46702;48.370;10.794;2022-12-10T17:01:36;0.60;99.90
60868;DHT22;46702;48.370;10.794;2022-12-10T17:04:02;0.50;99.90
60868;DHT22;46702;48.370;10.794;2022-12-10T17:06:28;0.50;99.90
60868;DHT22;46702;48.370;10.794;2022-12-10T17:08:54;0.50;99.90
60868;DHT22;46702;48.370;10.794;2022-12-10T17:11:28;0.50;99.90
60868;DHT22;46702;48.370;10.794;2022-12-10T17:14:30;0.40;99.90
60868;DHT22;46702;48.370;10.794;2022-12-10T17:16:59;0.40;99.90
60868;DHT22;46702;48.370;10.794;2022-12-10T17:19:38;0.40;99.90
60868;DHT22;46702;48.370;10.794;2022-12-10T17:22:06;0.40;99.90
60868;DHT22;46702;48.370;10.794;2022-12-10T17:24:32;0.40;99.90
60868;DHT22;46702;48.370;10.794;2022-12-10T17:27:03;0.40;99.90
60868;DHT22;46702;48.370;10.794;2022-12-10T17:29:31;0.40;99.90
60868;DHT22;46702;48.370;10.794;2022-12-10T17:31:57;0.50;99.90
60868;DHT22;46702;48.370;10.794;2022-12-10T17:34:23;0.40;99.90
60868;DHT22;46702;48.370;10.794;2022-12-10T17:36:50;0.40;99.90
60868;DHT22;46702;48.370;10.794;2022-12-10T17:39:18;0.40;99.90
60868;DHT22;46702;48.370;10.794;2022-12-10T17:41:44;0.50;99.90
60868;DHT22;46702;48.370;10.794;2022-12-10T17:44:10;0.40;99.90
60868;DHT22;46702;48.370;10.794;2022-12-10T17:46:36;0.40;99.90
60868;DHT22;46702;48.370;10.794;2022-12-10T17:49:02;0.40;99.90
60868;DHT22;46702;48.370;10.794;2022-12-10T17:51:28;0.50;99.90
60868;DHT22;46702;48.370;10.794;2022-12-10T17:53:54;0.50;99.90
60868;DHT22;46702;48.370;10.794;2022-12-10T17:56:24;0.50;99.90
60868;DHT22;46702;48.370;10.794;2022-12-10T17:58:54;0.50;99.90
60868;DHT22;46702;48.370;10.794;2022-12-10T18:01:20;0.50;99.90
60868;DHT22;46702;48.370;10.794;2022-12-10T18:03:46;0.40;99.90
60868;DHT22;46702;48.370;10.794;2022-12-10T18:06:27;0.50;99.90